sensor_id;sensor_type;location;lat;lon;timestamp;P1;durP1;ratioP1;P2;durP2;ratioP2
787;SDS011;16074;42.708;23.312;2022-07-09T00:01:09;12.47;;;11.47;;
787;SDS011;16074;42.708;23.312;2022-07-09T00:03:37;11.90;;;10.90;;
787;SDS011;16074;42.708;23.312;2022-07-09T00:06:06;12.50;;;11.50;;
787;SDS011;16074;42.708;23.312;2022-07-09T00:08:35;13.20;;;12.00;;
787;SDS011;16074;42.708;23.312;2022-07-09T00:11:04;11.40;;;10.50;;
787;SDS011;16074;42.708;23.312;2022-07-09T00:13:32;12.63;;;11.53;;
787;SDS011;16074;42.708;23.312;2022-07-09T00:16:01;12.90;;;11.80;;
787;SDS011;16074;42.708;23.312;2022-07-09T00:18:29;11.50;;;10.50;;
787;SDS011;16074;42.708;23.312;2022-07-09T00:20:58;10.67;;;9.77;;
787;SDS011;16074;42.708;23.312;2022-07-09T00:23:26;11.30;;;10.50;;
787;SDS011;16074;42.708;23.312;2022-07-09T00:25:56;10.77;;;9.87;;
787;SDS011;16074;42.708;23.312;2022-07-09T00:28:24;10.90;;;9.90;;
787;SDS011;16074;42.708;23.312;2022-07-09T00:30:53;11.00;;;10.10;;
787;SDS011;16074;42.708;23.312;2022-07-09T00:33:21;9.87;;;9.07;;
787;SDS011;16074;42.708;23.312;2022-07-09T00:35:49;10.80;;;9.90;;
787;SDS011;16074;42.708;23.312;2022-07-09T00:38:18;9.70;;;9.00;;
787;SDS011;16074;42.708;23.312;2022-07-09T00:40:46;9.50;;;8.80;;
787;SDS011;16074;42.708;23.312;2022-07-09T00:43:16;11.23;;;10.33;;
787;SDS011;16074;42.708;23.312;2022-07-09T00:45:45;9.77;;;8.97;;
787;SDS011;16074;42.708;23.312;2022-07-09T00:48:14;10.43;;;9.60;;
787;SDS011;16074;42.708;23.312;2022-07-09T00:50:43;10.20;;;9.37;;
787;SDS011;16074;42.708;23.312;2022-07-09T00:53:12;9.10;;;8.50;;
787;SDS011;16074;42.708;23.312;2022-07-09T00:55:42;9.10;;;8.40;;
787;SDS011;16074;42.708;23.312;2022-07-09T00:58:11;11.33;;;10.23;;
787;SDS011;16074;42.708;23.312;2022-07-09T01:00:44;11.30;;;9.97;;
787;SDS011;16074;42.708;23.312;2022-07-09T01:03:13;10.50;;;9.60;;
787;SDS011;16074;42.708;23.312;2022-07-09T01:05:41;11.60;;;10.53;;
787;SDS011;16074;42.708;23.312;2022-07-09T01:08:09;10.10;;;9.30;;
787;SDS011;16074;42.708;23.312;2022-07-09T01:10:38;10.30;;;9.40;;
787;SDS011;16074;42.708;23.312;2022-07-09T01:13:06;10.47;;;9.43;;
787;SDS011;16074;42.708;23.312;2022-07-09T01:15:35;10.07;;;9.30;;
787;SDS011;16074;42.708;23.312;2022-07-09T01:18:05;11.17;;;9.40;;
787;SDS011;16074;42.708;23.312;2022-07-09T01:20:34;9.80;;;9.03;;
787;SDS011;16074;42.708;23.312;2022-07-09T01:23:02;10.47;;;9.37;;
787;SDS011;16074;42.708;23.312;2022-07-09T01:25:31;10.93;;;10.03;;
787;SDS011;16074;42.708;23.312;2022-07-09T01:28:03;11.20;;;10.10;;
787;SDS011;16074;42.708;23.312;2022-07-09T01:30:33;9.40;;;8.70;;
787;SDS011;16074;42.708;23.312;2022-07-09T01:33:02;11.43;;;10.53;;
787;SDS011;16074;42.708;23.312;2022-07-09T01:35:31;10.27;;;9.33;;
787;SDS011;16074;42.708;23.312;2022-07-09T01:38:01;10.73;;;9.80;;
787;SDS011;16074;42.708;23.312;2022-07-09T01:40:29;9.80;;;8.80;;
787;SDS011;16074;42.708;23.312;2022-07-09T01:42:57;9.77;;;9.07;;
787;SDS011;16074;42.708;23.312;2022-07-09T01:45:25;10.67;;;9.87;;
787;SDS011;16074;42.708;23.312;2022-07-09T01:47:53;10.43;;;9.63;;
787;SDS011;16074;42.708;23.312;2022-07-09T01:50:22;11.07;;;9.90;;
787;SDS011;16074;42.708;23.312;2022-07-09T01:52:50;9.30;;;8.60;;
787;SDS011;16074;42.708;23.312;2022-07-09T01:55:20;11.20;;;10.30;;
787;SDS011;16074;42.708;23.312;2022-07-09T01:57:48;9.43;;;8.60;;
787;SDS011;16074;42.708;23.312;2022-07-09T02:00:16;9.97;;;9.30;;
787;SDS011;16074;42.708;23.312;2022-07-09T02:02:45;10.00;;;9.20;;
787;SDS011;16074;42.708;23.312;2022-07-09T02:05:14;10.50;;;9.70;;
787;SDS011;16074;42.708;23.312;2022-07-09T02:07:42;9.20;;;8.60;;
787;SDS011;16074;42.708;23.312;2022-07-09T02:10:10;9.00;;;8.23;;
787;SDS011;16074;42.708;23.312;2022-07-09T02:12:40;9.57;;;8.80;;
787;SDS011;16074;42.708;23.312;2022-07-09T02:15:08;9.70;;;9.00;;
787;SDS011;16074;42.708;23.312;2022-07-09T02:17:39;10.00;;;9.10;;
787;SDS011;16074;42.708;23.312;2022-07-09T02:20:07;8.10;;;7.50;;
787;SDS011;16074;42.708;23.312;2022-07-09T02:22:36;9.50;;;8.80;;
787;SDS011;16074;42.708;23.312;2022-07-09T02:25:05;9.83;;;8.83;;
787;SDS011;16074;42.708;23.312;2022-07-09T02:27:34;8.00;;;7.40;;
787;SDS011;16074;42.708;23.312;2022-07-09T02:30:04;8.83;;;8.13;;
787;SDS011;16074;42.708;23.312;2022-07-09T02:32:33;14.23;;;8.80;;
787;SDS011;16074;42.708;23.312;2022-07-09T02:35:03;9.80;;;8.93;;
787;SDS011;16074;42.708;23.312;2022-07-09T02:37:31;8.77;;;7.97;;
787;SDS011;16074;42.708;23.312;2022-07-09T02:40:00;7.80;;;7.30;;
787;SDS011;16074;42.708;23.312;2022-07-09T02:42:28;9.07;;;8.43;;
787;SDS011;16074;42.708;23.312;2022-07-09T02:44:56;8.43;;;7.83;;
787;SDS011;16074;42.708;23.312;2022-07-09T02:47:26;8.70;;;8.03;;
787;SDS011;16074;42.708;23.312;2022-07-09T02:49:54;8.87;;;7.97;;
787;SDS011;16074;42.708;23.312;2022-07-09T02:52:23;8.10;;;7.50;;
787;SDS011;16074;42.708;23.312;2022-07-09T02:54:52;8.17;;;7.57;;
787;SDS011;16074;42.708;23.312;2022-07-09T02:57:20;8.90;;;8.13;;
787;SDS011;16074;42.708;23.312;2022-07-09T02:59:48;8.23;;;7.60;;
787;SDS011;16074;42.708;23.312;2022-07-09T03:02:16;8.03;;;7.43;;
787;SDS011;16074;42.708;23.312;2022-07-09T03:04:46;8.13;;;7.63;;
787;SDS011;16074;42.708;23.312;2022-07-09T03:07:14;8.30;;;7.70;;
787;SDS011;16074;42.708;23.312;2022-07-09T03:09:42;8.67;;;8.07;;
787;SDS011;16074;42.708;23.312;2022-07-09T03:12:11;8.10;;;7.50;;
787;SDS011;16074;42.708;23.312;2022-07-09T03:14:39;8.33;;;7.73;;
787;SDS011;16074;42.708;23.312;2022-07-09T03:17:07;7.63;;;7.13;;
787;SDS011;16074;42.708;23.312;2022-07-09T03:19:36;9.17;;;8.57;;
787;SDS011;16074;42.708;23.312;2022-07-09T03:22:05;8.47;;;7.77;;
787;SDS011;16074;42.708;23.312;2022-07-09T03:24:33;9.00;;;8.30;;
787;SDS011;16074;42.708;23.312;2022-07-09T03:27:02;7.53;;;6.93;;
787;SDS011;16074;42.708;23.312;2022-07-09T03:29:31;9.57;;;8.70;;
787;SDS011;16074;42.708;23.312;2022-07-09T03:31:59;8.10;;;7.60;;
787;SDS011;16074;42.708;23.312;2022-07-09T03:34:27;7.40;;;6.90;;
787;SDS011;16074;42.708;23.312;2022-07-09T03:36:55;9.17;;;8.47;;
787;SDS011;16074;42.708;23.312;2022-07-09T03:39:25;8.67;;;7.87;;
787;SDS011;16074;42.708;23.312;2022-07-09T03:41:53;8.20;;;7.60;;
787;SDS011;16074;42.708;23.312;2022-07-09T03:44:21;7.40;;;7.00;;
787;SDS011;16074;42.708;23.312;2022-07-09T03:46:49;7.83;;;7.30;;
787;SDS011;16074;42.708;23.312;2022-07-09T03:49:18;7.70;;;7.20;;
787;SDS011;16074;42.708;23.312;2022-07-09T03:51:46;8.03;;;7.53;;
787;SDS011;16074;42.708;23.312;2022-07-09T03:54:35;8.60;;;8.00;;
787;SDS011;16074;42.708;23.312;2022-07-09T03:57:04;9.40;;;8.70;;
787;SDS011;16074;42.708;23.312;2022-07-09T03:59:32;9.30;;;8.60;;
787;SDS011;16074;42.708;23.312;2022-07-09T04:02:01;8.63;;;8.03;;
787;SDS011;16074;42.708;23.312;2022-07-09T04:04:36;8.60;;;7.80;;
787;SDS011;16074;42.708;23.312;2022-07-09T04:07:04;8.57;;;7.87;;
787;SDS011;16074;42.708;23.312;2022-07-09T04:09:32;8.37;;;7.63;;
787;SDS011;16074;42.708;23.312;2022-07-09T04:12:02;8.57;;;7.97;;
787;SDS011;16074;42.708;23.312;2022-07-09T04:14:31;9.00;;;8.20;;
787;SDS011;16074;42.708;23.312;2022-07-09T04:16:59;8.90;;;8.20;;
787;SDS011;16074;42.708;23.312;2022-07-09T04:19:28;9.47;;;8.67;;
787;SDS011;16074;42.708;23.312;2022-07-09T04:21:56;8.07;;;7.47;;
787;SDS011;16074;42.708;23.312;2022-07-09T04:24:24;8.10;;;7.47;;
787;SDS011;16074;42.708;23.312;2022-07-09T04:26:52;9.03;;;8.33;;
787;SDS011;16074;42.708;23.312;2022-07-09T04:29:22;11.53;;;8.97;;
787;SDS011;16074;42.708;23.312;2022-07-09T04:31:50;8.20;;;7.70;;
787;SDS011;16074;42.708;23.312;2022-07-09T04:34:19;9.60;;;8.90;;
787;SDS011;16074;42.708;23.312;2022-07-09T04:36:47;9.93;;;9.03;;
787;SDS011;16074;42.708;23.312;2022-07-09T04:39:16;10.13;;;9.27;;
787;SDS011;16074;42.708;23.312;2022-07-09T04:41:44;10.90;;;9.90;;
787;SDS011;16074;42.708;23.312;2022-07-09T04:44:12;8.80;;;8.10;;
787;SDS011;16074;42.708;23.312;2022-07-09T04:46:43;9.50;;;8.70;;
787;SDS011;16074;42.708;23.312;2022-07-09T04:49:12;8.63;;;7.93;;
787;SDS011;16074;42.708;23.312;2022-07-09T04:51:40;9.20;;;8.30;;
787;SDS011;16074;42.708;23.312;2022-07-09T04:54:09;10.77;;;9.87;;
787;SDS011;16074;42.708;23.312;2022-07-09T04:56:37;8.70;;;8.00;;
787;SDS011;16074;42.708;23.312;2022-07-09T04:59:05;8.77;;;8.17;;
787;SDS011;16074;42.708;23.312;2022-07-09T05:01:33;9.00;;;8.30;;
787;SDS011;16074;42.708;23.312;2022-07-09T05:04:03;8.87;;;8.23;;
787;SDS011;16074;42.708;23.312;2022-07-09T05:06:32;9.17;;;8.40;;
787;SDS011;16074;42.708;23.312;2022-07-09T05:09:00;13.77;;;12.50;;
787;SDS011;16074;42.708;23.312;2022-07-09T05:11:28;9.60;;;8.90;;
787;SDS011;16074;42.708;23.312;2022-07-09T05:13:56;9.70;;;9.00;;
787;SDS011;16074;42.708;23.312;2022-07-09T05:16:25;8.53;;;7.93;;
787;SDS011;16074;42.708;23.312;2022-07-09T05:18:53;8.20;;;7.60;;
787;SDS011;16074;42.708;23.312;2022-07-09T05:21:23;8.67;;;8.07;;
787;SDS011;16074;42.708;23.312;2022-07-09T05:23:51;8.43;;;7.70;;
787;SDS011;16074;42.708;23.312;2022-07-09T05:26:20;8.23;;;7.63;;
787;SDS011;16074;42.708;23.312;2022-07-09T05:28:48;11.07;;;10.27;;
787;SDS011;16074;42.708;23.312;2022-07-09T05:31:16;9.73;;;8.97;;
787;SDS011;16074;42.708;23.312;2022-07-09T05:34:01;10.87;;;9.97;;
787;SDS011;16074;42.708;23.312;2022-07-09T05:36:31;8.90;;;8.20;;
787;SDS011;16074;42.708;23.312;2022-07-09T05:39:00;9.13;;;8.43;;
787;SDS011;16074;42.708;23.312;2022-07-09T05:41:28;10.63;;;9.83;;
787;SDS011;16074;42.708;23.312;2022-07-09T05:43:56;9.50;;;8.70;;
787;SDS011;16074;42.708;23.312;2022-07-09T05:46:24;7.80;;;7.13;;
787;SDS011;16074;42.708;23.312;2022-07-09T05:48:53;9.43;;;8.63;;
787;SDS011;16074;42.708;23.312;2022-07-09T05:51:21;7.90;;;7.30;;
787;SDS011;16074;42.708;23.312;2022-07-09T05:53:51;8.47;;;7.77;;
787;SDS011;16074;42.708;23.312;2022-07-09T05:56:19;8.67;;;8.10;;
787;SDS011;16074;42.708;23.312;2022-07-09T05:58:47;9.00;;;8.30;;
787;SDS011;16074;42.708;23.312;2022-07-09T06:01:15;8.37;;;7.77;;
787;SDS011;16074;42.708;23.312;2022-07-09T06:03:51;9.20;;;8.40;;
787;SDS011;16074;42.708;23.312;2022-07-09T06:06:20;8.40;;;7.70;;
787;SDS011;16074;42.708;23.312;2022-07-09T06:08:48;8.23;;;7.53;;
787;SDS011;16074;42.708;23.312;2022-07-09T06:11:18;7.03;;;6.40;;
787;SDS011;16074;42.708;23.312;2022-07-09T06:13:46;7.90;;;7.30;;
787;SDS011;16074;42.708;23.312;2022-07-09T06:16:14;7.47;;;6.87;;
787;SDS011;16074;42.708;23.312;2022-07-09T06:18:42;7.53;;;7.03;;
787;SDS011;16074;42.708;23.312;2022-07-09T06:21:11;7.30;;;6.80;;
787;SDS011;16074;42.708;23.312;2022-07-09T06:23:39;7.67;;;7.07;;
787;SDS011;16074;42.708;23.312;2022-07-09T06:26:07;7.40;;;6.90;;
787;SDS011;16074;42.708;23.312;2022-07-09T06:28:37;6.60;;;6.17;;
787;SDS011;16074;42.708;23.312;2022-07-09T06:31:06;6.40;;;6.00;;
787;SDS011;16074;42.708;23.312;2022-07-09T06:33:34;7.30;;;6.90;;
787;SDS011;16074;42.708;23.312;2022-07-09T06:36:02;8.30;;;6.77;;
787;SDS011;16074;42.708;23.312;2022-07-09T06:38:31;7.60;;;6.90;;
787;SDS011;16074;42.708;23.312;2022-07-09T06:41:19;8.03;;;7.33;;
787;SDS011;16074;42.708;23.312;2022-07-09T06:43:49;8.50;;;7.70;;
787;SDS011;16074;42.708;23.312;2022-07-09T06:46:17;8.00;;;7.30;;
787;SDS011;16074;42.708;23.312;2022-07-09T06:48:45;7.57;;;6.87;;
787;SDS011;16074;42.708;23.312;2022-07-09T06:51:14;7.00;;;6.40;;
787;SDS011;16074;42.708;23.312;2022-07-09T06:53:42;7.87;;;7.27;;
787;SDS011;16074;42.708;23.312;2022-07-09T06:56:10;7.30;;;6.73;;
787;SDS011;16074;42.708;23.312;2022-07-09T06:58:38;6.50;;;5.90;;
787;SDS011;16074;42.708;23.312;2022-07-09T07:01:08;7.13;;;6.63;;
787;SDS011;16074;42.708;23.312;2022-07-09T07:03:36;7.30;;;6.90;;
787;SDS011;16074;42.708;23.312;2022-07-09T07:06:04;9.73;;;8.83;;
787;SDS011;16074;42.708;23.312;2022-07-09T07:08:33;8.53;;;7.97;;
787;SDS011;16074;42.708;23.312;2022-07-09T07:11:02;7.43;;;6.83;;
787;SDS011;16074;42.708;23.312;2022-07-09T07:13:30;6.83;;;6.43;;
787;SDS011;16074;42.708;23.312;2022-07-09T07:15:58;6.73;;;6.33;;
787;SDS011;16074;42.708;23.312;2022-07-09T07:18:28;8.33;;;7.60;;
787;SDS011;16074;42.708;23.312;2022-07-09T07:20:56;7.90;;;7.40;;
787;SDS011;16074;42.708;23.312;2022-07-09T07:23:24;9.13;;;8.40;;
787;SDS011;16074;42.708;23.312;2022-07-09T07:25:53;9.07;;;8.40;;
787;SDS011;16074;42.708;23.312;2022-07-09T07:28:21;9.33;;;8.63;;
787;SDS011;16074;42.708;23.312;2022-07-09T07:30:49;8.83;;;7.93;;
787;SDS011;16074;42.708;23.312;2022-07-09T07:33:17;9.10;;;8.50;;
787;SDS011;16074;42.708;23.312;2022-07-09T07:35:47;8.97;;;8.30;;
787;SDS011;16074;42.708;23.312;2022-07-09T07:38:16;8.63;;;7.83;;
787;SDS011;16074;42.708;23.312;2022-07-09T07:40:44;9.13;;;8.47;;
787;SDS011;16074;42.708;23.312;2022-07-09T07:43:12;8.67;;;7.93;;
787;SDS011;16074;42.708;23.312;2022-07-09T07:45:41;8.67;;;8.07;;
787;SDS011;16074;42.708;23.312;2022-07-09T07:48:10;7.57;;;7.03;;
787;SDS011;16074;42.708;23.312;2022-07-09T07:50:38;7.73;;;7.13;;
787;SDS011;16074;42.708;23.312;2022-07-09T07:53:07;7.93;;;7.43;;
787;SDS011;16074;42.708;23.312;2022-07-09T07:55:36;7.53;;;6.87;;
787;SDS011;16074;42.708;23.312;2022-07-09T07:58:04;7.10;;;6.60;;
787;SDS011;16074;42.708;23.312;2022-07-09T08:00:32;7.60;;;7.00;;
787;SDS011;16074;42.708;23.312;2022-07-09T08:03:00;6.83;;;6.23;;
787;SDS011;16074;42.708;23.312;2022-07-09T08:05:29;8.23;;;7.60;;
787;SDS011;16074;42.708;23.312;2022-07-09T08:07:58;7.67;;;7.17;;
787;SDS011;16074;42.708;23.312;2022-07-09T08:10:28;6.87;;;6.37;;
787;SDS011;16074;42.708;23.312;2022-07-09T08:13:01;6.97;;;6.37;;
787;SDS011;16074;42.708;23.312;2022-07-09T08:15:30;6.87;;;6.27;;
787;SDS011;16074;42.708;23.312;2022-07-09T08:17:58;6.60;;;6.20;;
787;SDS011;16074;42.708;23.312;2022-07-09T08:20:26;6.23;;;5.83;;
787;SDS011;16074;42.708;23.312;2022-07-09T08:22:55;6.53;;;6.10;;
787;SDS011;16074;42.708;23.312;2022-07-09T08:25:23;6.10;;;5.70;;
787;SDS011;16074;42.708;23.312;2022-07-09T08:27:53;6.00;;;5.60;;
787;SDS011;16074;42.708;23.312;2022-07-09T08:30:21;6.23;;;5.83;;
787;SDS011;16074;42.708;23.312;2022-07-09T08:32:49;5.80;;;5.40;;
787;SDS011;16074;42.708;23.312;2022-07-09T08:35:18;5.77;;;5.43;;
787;SDS011;16074;42.708;23.312;2022-07-09T08:37:46;6.40;;;6.00;;
787;SDS011;16074;42.708;23.312;2022-07-09T08:40:14;5.90;;;5.50;;
787;SDS011;16074;42.708;23.312;2022-07-09T08:42:43;5.50;;;5.13;;
787;SDS011;16074;42.708;23.312;2022-07-09T08:45:12;6.27;;;5.87;;
787;SDS011;16074;42.708;23.312;2022-07-09T08:47:41;6.57;;;6.13;;
787;SDS011;16074;42.708;23.312;2022-07-09T08:50:09;6.37;;;5.90;;
787;SDS011;16074;42.708;23.312;2022-07-09T08:52:39;5.83;;;5.53;;
787;SDS011;16074;42.708;23.312;2022-07-09T08:55:08;7.20;;;6.70;;
787;SDS011;16074;42.708;23.312;2022-07-09T08:57:37;6.97;;;6.57;;
787;SDS011;16074;42.708;23.312;2022-07-09T09:00:06;8.00;;;7.30;;
787;SDS011;16074;42.708;23.312;2022-07-09T09:02:37;7.83;;;7.23;;
787;SDS011;16074;42.708;23.312;2022-07-09T09:05:09;7.10;;;6.60;;
787;SDS011;16074;42.708;23.312;2022-07-09T09:07:39;6.80;;;6.30;;
787;SDS011;16074;42.708;23.312;2022-07-09T09:10:08;6.33;;;6.00;;
787;SDS011;16074;42.708;23.312;2022-07-09T09:12:36;6.97;;;6.50;;
787;SDS011;16074;42.708;23.312;2022-07-09T09:15:05;7.13;;;6.63;;
787;SDS011;16074;42.708;23.312;2022-07-09T09:17:43;9.50;;;8.70;;
787;SDS011;16074;42.708;23.312;2022-07-09T09:20:12;7.10;;;6.60;;
787;SDS011;16074;42.708;23.312;2022-07-09T09:22:45;7.60;;;7.20;;
787;SDS011;16074;42.708;23.312;2022-07-09T09:25:15;7.33;;;6.77;;
787;SDS011;16074;42.708;23.312;2022-07-09T09:27:51;8.07;;;7.47;;
787;SDS011;16074;42.708;23.312;2022-07-09T09:30:20;7.90;;;7.20;;
787;SDS011;16074;42.708;23.312;2022-07-09T09:32:56;8.30;;;7.67;;
787;SDS011;16074;42.708;23.312;2022-07-09T09:35:26;9.07;;;8.27;;
787;SDS011;16074;42.708;23.312;2022-07-09T09:37:55;8.37;;;7.70;;
787;SDS011;16074;42.708;23.312;2022-07-09T09:40:24;10.03;;;9.37;;
787;SDS011;16074;42.708;23.312;2022-07-09T09:42:53;10.20;;;9.40;;
787;SDS011;16074;42.708;23.312;2022-07-09T09:45:24;9.73;;;9.00;;
787;SDS011;16074;42.708;23.312;2022-07-09T09:47:53;9.80;;;9.10;;
787;SDS011;16074;42.708;23.312;2022-07-09T09:50:23;10.40;;;9.60;;
787;SDS011;16074;42.708;23.312;2022-07-09T09:52:53;10.60;;;9.90;;
787;SDS011;16074;42.708;23.312;2022-07-09T09:55:22;9.90;;;9.20;;
787;SDS011;16074;42.708;23.312;2022-07-09T09:57:51;9.30;;;8.60;;
787;SDS011;16074;42.708;23.312;2022-07-09T10:00:20;9.47;;;8.77;;
787;SDS011;16074;42.708;23.312;2022-07-09T10:02:48;10.80;;;10.00;;
787;SDS011;16074;42.708;23.312;2022-07-09T10:05:18;8.97;;;8.27;;
787;SDS011;16074;42.708;23.312;2022-07-09T10:07:47;8.47;;;7.77;;
787;SDS011;16074;42.708;23.312;2022-07-09T10:10:17;8.60;;;7.73;;
787;SDS011;16074;42.708;23.312;2022-07-09T10:12:46;7.77;;;7.17;;
787;SDS011;16074;42.708;23.312;2022-07-09T10:15:21;7.67;;;7.17;;
787;SDS011;16074;42.708;23.312;2022-07-09T10:17:51;8.40;;;7.60;;
787;SDS011;16074;42.708;23.312;2022-07-09T10:20:28;7.97;;;7.47;;
787;SDS011;16074;42.708;23.312;2022-07-09T10:23:02;9.03;;;8.43;;
787;SDS011;16074;42.708;23.312;2022-07-09T10:25:31;8.03;;;7.43;;
787;SDS011;16074;42.708;23.312;2022-07-09T10:28:14;8.00;;;7.30;;
787;SDS011;16074;42.708;23.312;2022-07-09T10:30:43;7.27;;;6.77;;
787;SDS011;16074;42.708;23.312;2022-07-09T10:33:11;9.03;;;8.17;;
787;SDS011;16074;42.708;23.312;2022-07-09T10:35:41;8.37;;;7.77;;
787;SDS011;16074;42.708;23.312;2022-07-09T10:38:12;7.73;;;7.13;;
787;SDS011;16074;42.708;23.312;2022-07-09T10:40:42;6.30;;;5.90;;
787;SDS011;16074;42.708;23.312;2022-07-09T10:43:12;4.97;;;4.60;;
787;SDS011;16074;42.708;23.312;2022-07-09T10:45:40;5.00;;;4.50;;
787;SDS011;16074;42.708;23.312;2022-07-09T10:48:11;4.00;;;3.80;;
787;SDS011;16074;42.708;23.312;2022-07-09T10:50:41;3.77;;;3.57;;
787;SDS011;16074;42.708;23.312;2022-07-09T10:53:12;3.67;;;3.50;;
787;SDS011;16074;42.708;23.312;2022-07-09T10:55:41;3.70;;;3.50;;
787;SDS011;16074;42.708;23.312;2022-07-09T10:58:17;4.10;;;3.80;;
787;SDS011;16074;42.708;23.312;2022-07-09T11:00:53;4.43;;;3.80;;
787;SDS011;16074;42.708;23.312;2022-07-09T11:03:25;3.90;;;3.70;;
787;SDS011;16074;42.708;23.312;2022-07-09T11:05:55;3.90;;;3.70;;
787;SDS011;16074;42.708;23.312;2022-07-09T11:08:26;3.90;;;3.67;;
787;SDS011;16074;42.708;23.312;2022-07-09T11:10:54;4.20;;;4.00;;
787;SDS011;16074;42.708;23.312;2022-07-09T11:13:23;3.87;;;3.57;;
787;SDS011;16074;42.708;23.312;2022-07-09T11:15:57;4.17;;;3.97;;
787;SDS011;16074;42.708;23.312;2022-07-09T11:18:27;3.50;;;3.30;;
787;SDS011;16074;42.708;23.312;2022-07-09T11:20:56;4.53;;;4.13;;
787;SDS011;16074;42.708;23.312;2022-07-09T11:23:26;2.97;;;2.87;;
787;SDS011;16074;42.708;23.312;2022-07-09T11:25:54;4.23;;;4.00;;
787;SDS011;16074;42.708;23.312;2022-07-09T11:28:23;4.67;;;3.50;;
787;SDS011;16074;42.708;23.312;2022-07-09T11:30:59;4.87;;;4.47;;
787;SDS011;16074;42.708;23.312;2022-07-09T11:33:28;5.37;;;4.87;;
787;SDS011;16074;42.708;23.312;2022-07-09T11:36:18;4.77;;;4.47;;
787;SDS011;16074;42.708;23.312;2022-07-09T11:38:49;3.80;;;3.60;;
787;SDS011;16074;42.708;23.312;2022-07-09T11:41:17;6.57;;;4.50;;
787;SDS011;16074;42.708;23.312;2022-07-09T11:43:46;4.30;;;3.90;;
787;SDS011;16074;42.708;23.312;2022-07-09T11:46:15;3.33;;;3.20;;
787;SDS011;16074;42.708;23.312;2022-07-09T11:48:48;4.20;;;4.00;;
787;SDS011;16074;42.708;23.312;2022-07-09T11:51:26;4.30;;;4.00;;
787;SDS011;16074;42.708;23.312;2022-07-09T11:53:56;5.43;;;5.13;;
787;SDS011;16074;42.708;23.312;2022-07-09T11:56:24;5.10;;;4.60;;
787;SDS011;16074;42.708;23.312;2022-07-09T11:58:52;4.40;;;4.10;;
787;SDS011;16074;42.708;23.312;2022-07-09T12:01:22;6.73;;;6.13;;
787;SDS011;16074;42.708;23.312;2022-07-09T12:03:50;5.10;;;4.80;;
787;SDS011;16074;42.708;23.312;2022-07-09T12:06:19;4.47;;;4.17;;
787;SDS011;16074;42.708;23.312;2022-07-09T12:08:47;3.83;;;3.63;;
787;SDS011;16074;42.708;23.312;2022-07-09T12:11:28;4.57;;;4.30;;
787;SDS011;16074;42.708;23.312;2022-07-09T12:13:57;4.00;;;3.80;;
787;SDS011;16074;42.708;23.312;2022-07-09T12:16:25;4.10;;;3.87;;
787;SDS011;16074;42.708;23.312;2022-07-09T12:18:54;4.33;;;4.13;;
787;SDS011;16074;42.708;23.312;2022-07-09T12:21:23;6.00;;;5.60;;
787;SDS011;16074;42.708;23.312;2022-07-09T12:23:52;4.10;;;3.90;;
787;SDS011;16074;42.708;23.312;2022-07-09T12:26:21;4.23;;;4.03;;
787;SDS011;16074;42.708;23.312;2022-07-09T12:28:49;4.40;;;4.10;;
787;SDS011;16074;42.708;23.312;2022-07-09T12:31:23;3.87;;;3.67;;
787;SDS011;16074;42.708;23.312;2022-07-09T12:33:51;3.80;;;3.60;;
787;SDS011;16074;42.708;23.312;2022-07-09T12:36:20;4.30;;;4.10;;
787;SDS011;16074;42.708;23.312;2022-07-09T12:39:08;3.30;;;3.20;;
787;SDS011;16074;42.708;23.312;2022-07-09T12:41:38;3.53;;;3.43;;
787;SDS011;16074;42.708;23.312;2022-07-09T12:44:06;4.00;;;3.80;;
787;SDS011;16074;42.708;23.312;2022-07-09T12:46:34;2.83;;;2.73;;
787;SDS011;16074;42.708;23.312;2022-07-09T12:49:03;3.70;;;3.40;;
787;SDS011;16074;42.708;23.312;2022-07-09T12:51:31;3.43;;;3.23;;
787;SDS011;16074;42.708;23.312;2022-07-09T12:53:59;4.07;;;3.80;;
787;SDS011;16074;42.708;23.312;2022-07-09T12:56:28;3.63;;;3.43;;
787;SDS011;16074;42.708;23.312;2022-07-09T12:59:18;4.17;;;3.97;;
787;SDS011;16074;42.708;23.312;2022-07-09T13:01:46;3.77;;;3.57;;
787;SDS011;16074;42.708;23.312;2022-07-09T13:04:15;3.30;;;3.20;;
787;SDS011;16074;42.708;23.312;2022-07-09T13:06:43;3.27;;;3.17;;
787;SDS011;16074;42.708;23.312;2022-07-09T13:09:11;3.20;;;3.10;;
787;SDS011;16074;42.708;23.312;2022-07-09T13:11:39;3.80;;;3.60;;
787;SDS011;16074;42.708;23.312;2022-07-09T13:14:08;3.60;;;3.47;;
787;SDS011;16074;42.708;23.312;2022-07-09T13:16:37;4.13;;;3.70;;
787;SDS011;16074;42.708;23.312;2022-07-09T13:19:05;3.33;;;3.23;;
787;SDS011;16074;42.708;23.312;2022-07-09T13:21:33;4.50;;;4.20;;
787;SDS011;16074;42.708;23.312;2022-07-09T13:24:02;3.67;;;3.50;;
787;SDS011;16074;42.708;23.312;2022-07-09T13:26:30;3.97;;;3.77;;
787;SDS011;16074;42.708;23.312;2022-07-09T13:29:02;5.13;;;4.10;;
787;SDS011;16074;42.708;23.312;2022-07-09T13:31:31;4.83;;;4.60;;
787;SDS011;16074;42.708;23.312;2022-07-09T13:34:00;4.20;;;4.00;;
787;SDS011;16074;42.708;23.312;2022-07-09T13:36:30;4.00;;;3.77;;
787;SDS011;16074;42.708;23.312;2022-07-09T13:38:58;4.20;;;4.00;;
787;SDS011;16074;42.708;23.312;2022-07-09T13:41:26;4.23;;;4.03;;
787;SDS011;16074;42.708;23.312;2022-07-09T13:43:55;4.90;;;4.63;;
787;SDS011;16074;42.708;23.312;2022-07-09T13:46:23;4.90;;;4.60;;
787;SDS011;16074;42.708;23.312;2022-07-09T13:48:51;4.90;;;4.60;;
787;SDS011;16074;42.708;23.312;2022-07-09T13:51:21;5.03;;;4.63;;
787;SDS011;16074;42.708;23.312;2022-07-09T13:53:49;4.10;;;3.90;;
787;SDS011;16074;42.708;23.312;2022-07-09T13:56:17;3.83;;;3.63;;
787;SDS011;16074;42.708;23.312;2022-07-09T13:58:46;5.70;;;5.23;;
787;SDS011;16074;42.708;23.312;2022-07-09T14:01:15;4.50;;;4.13;;
787;SDS011;16074;42.708;23.312;2022-07-09T14:03:43;4.60;;;4.30;;
787;SDS011;16074;42.708;23.312;2022-07-09T14:06:12;4.13;;;3.83;;
787;SDS011;16074;42.708;23.312;2022-07-09T14:09:01;4.23;;;4.03;;
787;SDS011;16074;42.708;23.312;2022-07-09T14:11:30;4.20;;;3.90;;
787;SDS011;16074;42.708;23.312;2022-07-09T14:13:58;3.90;;;3.70;;
787;SDS011;16074;42.708;23.312;2022-07-09T14:16:27;3.87;;;3.67;;
787;SDS011;16074;42.708;23.312;2022-07-09T14:18:55;3.50;;;3.40;;
787;SDS011;16074;42.708;23.312;2022-07-09T14:21:24;3.90;;;3.70;;
787;SDS011;16074;42.708;23.312;2022-07-09T14:23:52;4.10;;;3.90;;
787;SDS011;16074;42.708;23.312;2022-07-09T14:26:21;4.17;;;3.90;;
787;SDS011;16074;42.708;23.312;2022-07-09T14:28:50;3.87;;;3.67;;
787;SDS011;16074;42.708;23.312;2022-07-09T14:31:18;4.20;;;4.00;;
787;SDS011;16074;42.708;23.312;2022-07-09T14:33:47;4.17;;;3.97;;
787;SDS011;16074;42.708;23.312;2022-07-09T14:36:15;3.43;;;3.30;;
787;SDS011;16074;42.708;23.312;2022-07-09T14:38:43;3.87;;;3.67;;
787;SDS011;16074;42.708;23.312;2022-07-09T14:41:12;3.90;;;3.60;;
787;SDS011;16074;42.708;23.312;2022-07-09T14:43:41;3.77;;;3.57;;
787;SDS011;16074;42.708;23.312;2022-07-09T14:46:10;3.83;;;3.50;;
787;SDS011;16074;42.708;23.312;2022-07-09T14:48:38;4.27;;;3.97;;
787;SDS011;16074;42.708;23.312;2022-07-09T14:51:07;3.80;;;3.60;;
787;SDS011;16074;42.708;23.312;2022-07-09T14:53:36;4.40;;;4.00;;
787;SDS011;16074;42.708;23.312;2022-07-09T14:56:09;4.33;;;4.13;;
787;SDS011;16074;42.708;23.312;2022-07-09T14:58:37;4.87;;;4.47;;
787;SDS011;16074;42.708;23.312;2022-07-09T15:01:08;4.67;;;4.47;;
787;SDS011;16074;42.708;23.312;2022-07-09T15:03:36;4.70;;;4.30;;
787;SDS011;16074;42.708;23.312;2022-07-09T15:06:05;4.03;;;3.80;;
787;SDS011;16074;42.708;23.312;2022-07-09T15:08:33;4.57;;;4.37;;
787;SDS011;16074;42.708;23.312;2022-07-09T15:11:02;5.13;;;4.83;;